Time;durP1;ratioP1;P1;durP2;ratioP2;P2;SDS_P1;SDS_P2;PMS_P1;PMS_P2;Temp;Humidity;BMP_temperature;BMP_pressure;BME280_temperature;BME280_humidity;BME280_pressure;Samples;Min_cycle;Max_cycle;Signal;HPM_P1;HPM_P2
2022/08/23 00:00:59;;;;;;;7.82;4.20;;;;;;;18.52;67.04;101150.13;4990346;28;20408;-94
2022/08/23 00:03:25;;;;;;;7.10;4.10;;;;;;;18.46;67.61;101147.91;4990865;28;20036;-94
2022/08/23 00:05:50;;;;;;;8.93;4.68;;;;;;;18.39;68.25;101152.94;4989757;28;20050;-95
2022/08/23 00:08:15;;;;;;;6.85;4.82;;;;;;;18.27;68.60;101143.13;4975154;28;20227;-95
2022/08/23 00:10:41;;;;;;;6.43;4.60;;;;;;;18.22;68.70;101156.94;4976644;28;20110;-94
2022/08/23 00:13:06;;;;;;;8.63;4.57;;;;;;;18.13;68.47;101157.66;4979273;28;20026;-95
2022/08/23 00:15:32;;;;;;;10.55;4.78;;;;;;;18.15;68.54;101166.50;4975202;28;20730;-95
2022/08/23 00:17:59;;;;;;;6.55;4.20;;;;;;;18.11;68.08;101159.63;4975576;28;20029;-94
2022/08/23 00:20:25;;;;;;;7.03;4.50;;;;;;;18.10;68.50;101153.41;4977327;28;20030;-95
2022/08/23 00:22:50;;;;;;;7.60;4.75;;;;;;;18.10;68.52;101155.19;4991772;28;20115;-95
2022/08/23 00:25:16;;;;;;;6.40;4.25;;;;;;;18.05;68.84;101160.94;4993073;28;20485;-94
2022/08/23 00:27:42;;;;;;;7.00;4.72;;;;;;;17.98;69.61;101162.41;4977332;28;20027;-95
2022/08/23 00:30:11;;;;;;;7.72;4.80;;;;;;;17.85;69.81;101154.44;4993610;28;20086;-96
2022/08/23 00:32:37;;;;;;;8.43;4.50;;;;;;;17.75;69.47;101141.75;4975961;28;20031;-94
2022/08/23 00:35:05;;;;;;;10.20;5.13;;;;;;;17.76;69.46;101160.47;4990480;28;20034;-94
2022/08/23 00:37:31;;;;;;;10.07;4.88;;;;;;;17.72;69.87;101156.28;4978901;28;20038;-96
2022/08/23 00:39:57;;;;;;;7.55;4.70;;;;;;;17.68;69.94;101152.09;4975549;28;20041;-94
2022/08/23 00:48:17;;;;;;;8.05;4.90;;;;;;;17.73;69.57;101163.41;4976881;28;20067;-93
2022/08/23 00:50:51;;;;;;;10.05;5.25;;;;;;;17.59;70.08;101155.50;4974864;28;20046;-94
2022/08/23 00:53:19;;;;;;;7.57;5.15;;;;;;;17.56;70.92;101163.81;4974122;28;20042;-94
2022/08/23 00:55:48;;;;;;;9.77;5.18;;;;;;;17.54;70.54;101157.69;4968720;28;20043;-93
2022/08/23 00:58:17;;;;;;;10.18;5.07;;;;;;;17.57;70.91;101163.69;4971358;28;20019;-93
2022/08/23 01:00:43;;;;;;;9.90;5.43;;;;;;;17.61;70.92;101167.00;4955141;28;20089;-96
2022/08/23 01:03:10;;;;;;;5.57;4.90;;;;;;;17.55;70.87;101146.78;4974413;28;20023;-93
2022/08/23 01:05:46;;;;;;;8.00;4.97;;;;;;;17.58;70.27;101173.47;4976870;28;20038;-95
2022/08/23 01:08:11;;;;;;;7.25;4.65;;;;;;;17.54;71.04;101176.50;4975421;28;20023;-94
2022/08/23 01:10:53;;;;;;;8.35;4.78;;;;;;;17.37;71.13;101157.09;4959251;28;20041;-94
2022/08/23 01:13:24;;;;;;;7.32;5.15;;;;;;;17.42;71.53;101180.97;4958269;28;20061;-93
2022/08/23 01:16:00;;;;;;;6.70;5.53;;;;;;;17.34;72.06;101161.84;4969872;28;20035;-95
2022/08/23 01:18:27;;;;;;;6.40;4.90;;;;;;;17.36;72.16;101174.22;4972325;28;20057;-94
2022/08/23 01:21:08;;;;;;;10.93;5.57;;;;;;;17.41;71.79;101168.50;4970418;28;20047;-94
2022/08/23 01:23:47;;;;;;;7.82;5.40;;;;;;;17.37;72.01;101164.31;4939638;29;20039;-94
2022/08/23 01:26:16;;;;;;;8.40;4.97;;;;;;;17.33;72.16;101161.00;4974341;28;20031;-94
2022/08/23 01:28:42;;;;;;;9.75;5.53;;;;;;;17.30;72.47;101163.91;4958520;28;20074;-94
2022/08/23 01:31:09;;;;;;;8.18;5.45;;;;;;;17.22;72.38;101171.69;4957743;28;20046;-94
2022/08/23 01:33:39;;;;;;;7.60;5.30;;;;;;;17.22;72.62;101165.44;4959985;28;20065;-93
2022/08/23 01:36:07;;;;;;;8.77;4.80;;;;;;;17.23;73.00;101162.66;4973573;28;20065;-95
2022/08/23 01:38:32;;;;;;;7.95;5.25;;;;;;;17.21;72.71;101161.91;4955985;28;20268;-92
2022/08/23 01:40:58;;;;;;;8.02;5.50;;;;;;;17.20;72.31;101162.03;4961557;28;20087;-93
2022/08/23 01:43:23;;;;;;;9.68;5.45;;;;;;;17.12;73.18;101170.66;4972942;28;20030;-94
2022/08/23 01:45:50;;;;;;;9.88;5.40;;;;;;;17.04;72.81;101152.38;4959478;28;20038;-95
2022/08/23 01:48:17;;;;;;;9.80;6.18;;;;;;;17.15;73.27;101173.13;4970426;28;20075;-94
2022/08/23 01:50:42;;;;;;;10.32;5.93;;;;;;;17.06;73.46;101163.03;4976836;28;20030;-94
2022/08/23 01:53:08;;;;;;;9.10;5.80;;;;;;;17.11;73.49;101172.47;4984272;28;20062;-94
2022/08/23 01:55:35;;;;;;;9.57;5.53;;;;;;;17.06;73.31;101171.97;4998213;28;20046;-95
2022/08/23 01:58:03;;;;;;;7.35;5.88;;;;;;;17.07;73.75;101176.38;4999603;28;20030;-95
2022/08/23 02:00:32;;;;;;;9.68;6.63;;;;;;;17.00;73.34;101176.91;4975410;28;20035;-95
2022/08/23 02:02:59;;;;;;;9.48;5.90;;;;;;;16.90;73.91;101165.97;4978225;28;20055;-95
2022/08/23 02:05:25;;;;;;;10.13;5.85;;;;;;;16.85;73.78;101160.94;4977597;28;20023;-95
2022/08/23 02:07:50;;;;;;;9.45;5.60;;;;;;;16.77;74.14;101154.41;4983528;28;20540;-96
2022/08/23 02:10:17;;;;;;;9.10;5.85;;;;;;;16.65;74.16;101139.97;4983558;28;20083;-93
2022/08/23 02:12:43;;;;;;;7.35;5.53;;;;;;;16.68;74.60;101156.75;4990831;28;20034;-96
2022/08/23 02:15:11;;;;;;;8.23;5.63;;;;;;;16.68;74.37;101159.44;4997935;28;20027;-93
2022/08/23 02:17:37;;;;;;;10.27;5.95;;;;;;;16.72;74.57;101160.06;4995989;28;20122;-95
2022/08/23 02:20:04;;;;;;;8.43;6.13;;;;;;;16.80;74.62;101167.59;4986517;28;20027;-96
2022/08/23 02:22:30;;;;;;;8.75;6.40;;;;;;;16.85;74.17;101176.22;4986728;28;20646;-96
2022/08/23 02:24:55;;;;;;;8.95;5.85;;;;;;;16.68;74.29;101154.06;4995965;28;20031;-96
2022/08/23 02:27:21;;;;;;;7.38;5.63;;;;;;;16.76;74.30;101166.97;4978726;28;20587;-96
2022/08/23 02:29:46;;;;;;;8.52;6.07;;;;;;;16.82;74.72;101174.59;4974767;28;20031;-95
2022/08/23 02:32:15;;;;;;;10.30;5.70;;;;;;;16.79;74.64;101161.34;4989714;28;20031;-95
2022/08/23 02:34:41;;;;;;;7.20;6.00;;;;;;;16.86;74.59;101168.03;4976432;28;20155;-94
2022/08/23 02:37:09;;;;;;;11.63;6.47;;;;;;;16.85;74.43;101163.63;4976454;28;20030;-93
2022/08/23 02:39:35;;;;;;;11.95;6.80;;;;;;;16.85;74.33;101169.00;4991227;28;20018;-94
2022/08/23 02:42:01;;;;;;;10.05;6.93;;;;;;;16.87;74.58;101166.19;4984916;28;20027;-94
2022/08/23 02:44:26;;;;;;;12.15;7.50;;;;;;;16.83;74.34;101165.53;4974827;28;20117;-93
2022/08/23 02:46:51;;;;;;;13.13;7.00;;;;;;;16.89;74.63;101172.34;4991658;28;20035;-94
2022/08/23 02:49:18;;;;;;;9.88;7.13;;;;;;;16.85;74.88;101158.25;4975673;28;20070;-94
2022/08/23 02:51:43;;;;;;;9.57;6.25;;;;;;;16.82;74.76;101158.47;4966561;28;20031;-95
2022/08/23 02:54:09;;;;;;;11.63;6.90;;;;;;;16.90;74.45;101177.59;4974736;28;20086;-94
2022/08/23 02:56:35;;;;;;;10.65;6.50;;;;;;;16.83;74.74;101173.63;4974649;28;20014;-94
2022/08/23 02:59:01;;;;;;;10.20;6.60;;;;;;;16.77;74.99;101155.25;4987209;28;20050;-95
2022/08/23 03:01:30;;;;;;;13.35;6.70;;;;;;;16.75;75.09;101172.44;4966938;28;20428;-94
2022/08/23 03:03:56;;;;;;;7.70;6.05;;;;;;;16.72;75.48;101183.38;4990769;28;20073;-94
2022/08/23 03:06:21;;;;;;;10.43;6.05;;;;;;;16.66;75.83;101184.69;4975031;28;20042;-96
2022/08/23 03:08:47;;;;;;;9.60;6.47;;;;;;;16.57;76.06;101167.38;4990428;28;20034;-95
2022/08/23 03:11:15;;;;;;;8.57;6.05;;;;;;;16.57;76.12;101186.19;4974018;28;20023;-94
2022/08/23 03:13:41;;;;;;;12.02;6.78;;;;;;;16.55;76.07;101176.50;4969711;28;20089;-95
2022/08/23 03:16:08;;;;;;;8.90;6.07;;;;;;;16.59;76.01;101178.00;4977496;28;20177;-95
2022/08/23 03:18:35;;;;;;;10.15;6.13;;;;;;;16.57;76.29;101174.59;4976144;28;20054;-94
2022/08/23 03:21:01;;;;;;;11.00;6.68;;;;;;;16.62;76.62;101189.41;4974285;28;20050;-94
2022/08/23 03:23:27;;;;;;;7.25;5.68;;;;;;;16.63;76.36;101187.56;4992137;28;20039;-94
2022/08/23 03:25:52;;;;;;;9.23;5.95;;;;;;;16.69;76.18;101193.38;4976859;28;20029;-96
2022/08/23 03:28:19;;;;;;;10.93;6.60;;;;;;;16.75;75.46;101186.75;4993162;28;20030;-96
2022/08/23 03:30:44;;;;;;;10.52;6.43;;;;;;;16.75;75.95;101192.13;4990199;28;20031;-94
2022/08/23 03:33:10;;;;;;;9.52;6.07;;;;;;;16.87;75.89;101198.44;4973713;28;20168;-95
2022/08/23 03:35:35;;;;;;;11.48;6.25;;;;;;;16.89;75.55;101188.47;4975966;28;20027;-95
2022/08/23 03:38:00;;;;;;;9.70;6.40;;;;;;;16.97;75.74;101193.25;4974312;28;20583;-94
2022/08/23 03:40:26;;;;;;;8.77;5.75;;;;;;;17.00;75.60;101187.66;4991087;28;20039;-93
2022/08/23 03:42:51;;;;;;;7.78;5.43;;;;;;;17.03;75.16;101198.22;4993377;28;20033;-95
2022/08/23 03:45:17;;;;;;;7.55;6.20;;;;;;;16.96;75.51;101189.72;4979117;28;20099;-93
2022/08/23 03:47:43;;;;;;;8.90;6.00;;;;;;;16.95;75.16;101185.31;4982758;28;20023;-94
2022/08/23 03:50:09;;;;;;;9.65;6.53;;;;;;;16.83;75.75;101172.75;4981606;28;20047;-94
2022/08/23 03:52:35;;;;;;;10.55;5.80;;;;;;;16.90;75.86;101200.94;4971998;28;20031;-95
2022/08/23 03:55:01;;;;;;;10.10;6.30;;;;;;;16.82;76.02;101187.19;4971061;28;20067;-96
2022/08/23 03:57:26;;;;;;;9.80;6.82;;;;;;;16.67;75.61;101187.25;4958362;28;20031;-94
2022/08/23 03:59:51;;;;;;;9.43;6.38;;;;;;;16.69;75.87;101200.59;4988472;28;20065;-94
2022/08/23 04:02:17;;;;;;;9.98;6.38;;;;;;;16.66;75.86;101207.03;4992473;28;20066;-94
2022/08/23 04:04:42;;;;;;;8.88;6.47;;;;;;;16.62;76.21;101205.53;4978421;28;20030;-94
2022/08/23 04:07:08;;;;;;;9.68;6.97;;;;;;;16.59;76.24;101211.13;4964559;28;20054;-95
2022/08/23 04:09:33;;;;;;;10.93;6.25;;;;;;;16.58;76.75;101213.91;4962031;28;20040;-93
2022/08/23 04:11:59;;;;;;;9.18;6.70;;;;;;;16.58;76.65;101217.47;4968186;28;20015;-96
2022/08/23 04:14:25;;;;;;;11.05;7.00;;;;;;;16.57;76.75;101220.28;4973667;28;20015;-96
2022/08/23 04:16:50;;;;;;;11.68;7.15;;;;;;;16.55;77.13;101222.19;4972063;28;20145;-96
2022/08/23 04:19:16;;;;;;;14.82;7.60;;;;;;;16.54;77.67;101228.53;4987172;28;20023;-94
2022/08/23 04:21:47;;;;;;;10.75;7.38;;;;;;;16.53;77.87;101224.13;4987405;28;20046;-95
2022/08/23 04:24:13;;;;;;;13.40;7.85;;;;;;;16.52;77.90;101217.06;4980642;28;20297;-96
2022/08/23 04:26:39;;;;;;;10.70;7.32;;;;;;;16.39;78.17;101207.16;4963204;28;20021;-96
2022/08/23 04:29:04;;;;;;;8.38;6.97;;;;;;;16.44;78.04;101215.75;4976558;28;20108;-94
2022/08/23 04:31:32;;;;;;;12.25;7.50;;;;;;;16.41;78.35;101221.31;4961407;28;20038;-94
2022/08/23 04:33:57;;;;;;;9.07;7.28;;;;;;;16.19;78.47;101187.03;4963846;28;20121;-96
2022/08/23 04:36:22;;;;;;;10.32;7.40;;;;;;;16.37;78.41;101217.13;4963549;28;20046;-95
2022/08/23 04:38:48;;;;;;;12.77;6.95;;;;;;;16.31;78.40;101197.91;4974947;28;20531;-94
2022/08/23 04:43:59;;;;;;;10.90;7.40;;;;;;;16.51;78.39;101220.69;4972004;28;20567;-93
2022/08/23 04:46:24;;;;;;;9.35;7.35;;;;;;;16.60;78.51;101228.13;4961236;28;20026;-95
2022/08/23 04:48:49;;;;;;;11.48;7.60;;;;;;;16.64;78.20;101225.13;4977795;28;20220;-95
2022/08/23 04:51:15;;;;;;;10.95;7.57;;;;;;;16.58;77.99;101217.47;4956864;28;20110;-95
2022/08/23 04:53:41;;;;;;;8.35;6.97;;;;;;;16.58;77.95;101209.41;4967877;28;20188;-95
2022/08/23 04:56:08;;;;;;;9.30;7.25;;;;;;;16.62;77.93;101212.75;4975128;28;20027;-96
2022/08/23 04:58:35;;;;;;;10.18;7.72;;;;;;;16.76;78.10;101228.81;4976124;28;20035;-94
2022/08/23 05:01:04;;;;;;;12.07;7.90;;;;;;;16.76;78.39;101241.34;4971174;28;20054;-94
2022/08/23 05:03:30;;;;;;;10.13;7.43;;;;;;;16.64;78.45;101202.75;4971589;28;20137;-95
2022/08/23 05:05:57;;;;;;;9.88;7.43;;;;;;;16.81;78.42;101236.53;4975257;28;20497;-95
2022/08/23 05:08:23;;;;;;;13.50;7.90;;;;;;;16.80;77.94;101232.09;4959490;28;20058;-93
2022/08/23 05:10:49;;;;;;;8.77;6.95;;;;;;;16.85;77.62;101227.28;4956326;28;20023;-94
2022/08/23 05:13:14;;;;;;;10.13;7.60;;;;;;;16.85;78.17;101232.66;4954336;28;20362;-93
2022/08/23 05:15:40;;;;;;;11.90;7.70;;;;;;;16.77;78.10;101229.66;4970313;28;20023;-93
2022/08/23 05:18:06;;;;;;;12.35;8.25;;;;;;;16.82;77.73;101232.88;4957278;28;20035;-93
2022/08/23 05:20:31;;;;;;;11.20;8.07;;;;;;;16.89;77.40;101248.47;4953940;28;20027;-96
2022/08/23 05:22:59;;;;;;;10.65;7.90;;;;;;;17.00;77.46;101254.91;4973940;28;20415;-95
2022/08/23 05:25:48;;;;;;;11.35;8.18;;;;;;;17.01;77.80;101243.16;4960202;28;20070;-95
2022/08/23 05:28:10;;;;;;;13.73;7.53;;;;;;;16.94;77.67;101229.31;4973265;28;20027;-96
2022/08/23 05:30:35;;;;;;;12.75;7.82;;;;;;;17.09;78.13;101240.78;4959050;28;20014;-95
2022/08/23 05:33:01;;;;;;;12.40;7.57;;;;;;;17.14;77.42;101246.72;4975981;28;20034;-96
2022/08/23 05:35:26;;;;;;;12.98;8.30;;;;;;;17.07;76.97;101232.84;4964646;28;20034;-95
2022/08/23 05:37:52;;;;;;;13.30;7.45;;;;;;;17.16;76.56;101231.31;4965134;28;20027;-93
2022/08/23 05:40:17;;;;;;;12.60;8.35;;;;;;;17.15;75.91;101230.47;4967161;28;20023;-94
2022/08/23 05:42:43;;;;;;;13.52;8.50;;;;;;;17.34;75.28;101246.09;4975211;28;20046;-93
2022/08/23 05:45:09;;;;;;;12.45;8.45;;;;;;;17.57;75.00;101283.94;4979077;28;20049;-93
2022/08/23 05:47:34;;;;;;;12.27;8.88;;;;;;;17.62;74.79;101281.78;4978660;28;20010;-94
2022/08/23 05:50:00;;;;;;;11.77;8.18;;;;;;;17.58;75.07;101262.28;4979550;28;20082;-95
2022/08/23 05:52:26;;;;;;;12.57;7.97;;;;;;;17.75;74.39;101279.06;4963498;28;20043;-95
2022/08/23 05:54:51;;;;;;;11.73;8.63;;;;;;;17.93;74.66;101291.16;4960021;28;20032;-95
2022/08/23 05:57:17;;;;;;;16.63;8.73;;;;;;;17.87;73.63;101275.47;4964420;28;20018;-95
2022/08/23 05:59:42;;;;;;;10.98;8.50;;;;;;;18.10;72.73;101295.28;4960313;28;20031;-96
2022/08/23 06:02:08;;;;;;;15.38;8.88;;;;;;;18.12;72.67;101282.56;4974278;28;20038;-94
2022/08/23 06:04:33;;;;;;;14.48;9.00;;;;;;;18.24;72.72;101295.09;4977314;28;20053;-93
2022/08/23 06:06:59;;;;;;;15.07;8.68;;;;;;;18.33;72.44;101297.09;4974540;28;20026;-95
2022/08/23 06:09:25;;;;;;;14.45;9.13;;;;;;;18.47;71.24;101303.25;4975346;28;20026;-96
2022/08/23 06:11:51;;;;;;;17.90;10.38;;;;;;;18.50;70.36;101286.84;4975162;28;20026;-94
2022/08/23 06:14:16;;;;;;;13.77;9.95;;;;;;;18.57;69.67;101285.41;4975410;28;20027;-94
2022/08/23 06:16:45;;;;;;;12.07;9.93;;;;;;;18.81;69.10;101298.84;4962185;28;20086;-95
2022/08/23 06:19:11;;;;;;;14.95;11.00;;;;;;;18.97;68.43;101285.88;4977136;28;20037;-93
2022/08/23 06:21:37;;;;;;;16.45;10.68;;;;;;;19.36;68.06;101289.94;4975286;28;20062;-96
2022/08/23 06:24:03;;;;;;;18.02;10.88;;;;;;;19.70;65.69;101271.00;4962155;28;20027;-93
2022/08/23 06:26:33;;;;;;;19.63;14.00;;;;;;;20.08;65.50;101297.53;4961708;28;20038;-95
2022/08/23 06:29:37;;;;;;;20.30;12.30;;;;;;;20.05;65.30;101261.78;4975747;28;20038;-95
2022/08/23 06:34:43;;;;;;;16.65;12.02;;;;;;;20.64;63.55;101282.91;5526536;23;20074;-95
2022/08/23 06:37:15;;;;;;;21.90;12.18;;;;;;;20.91;61.56;101279.66;4975878;28;20031;-95
2022/08/23 06:39:41;;;;;;;18.55;10.77;;;;;;;21.24;59.58;101280.38;4947905;29;20174;-95
2022/08/23 06:42:13;;;;;;;17.83;9.95;;;;;;;21.30;57.90;101287.94;4957432;28;20031;-95
2022/08/23 06:44:38;;;;;;;16.25;10.50;;;;;;;21.03;58.09;101262.34;4951353;29;20027;-95
2022/08/23 06:47:10;;;;;;;14.32;9.88;;;;;;;21.34;59.03;101305.66;4941199;29;20034;-96
2022/08/23 06:49:39;;;;;;;14.60;10.15;;;;;;;21.48;58.11;101294.44;4954315;28;20038;-94
2022/08/23 06:52:04;;;;;;;13.00;9.45;;;;;;;21.84;58.75;101306.53;4936281;28;20062;-95
2022/08/23 06:54:32;;;;;;;16.05;9.50;;;;;;;21.83;58.27;101260.63;4936345;29;20035;-93
2022/08/23 06:56:59;;;;;;;12.45;9.52;;;;;;;22.34;56.81;101303.75;4954050;28;20027;-95
2022/08/23 06:59:25;;;;;;;12.98;9.52;;;;;;;22.38;59.21;101263.63;4941867;29;20030;-93
2022/08/23 07:02:03;;;;;;;13.82;9.57;;;;;;;;;;4952411;28;20127;-94
2022/08/23 07:04:34;;;;;;;14.50;10.02;;;;;;;22.67;55.27;101252.72;4950363;28;20058;-95
2022/08/23 07:07:05;;;;;;;14.55;9.80;;;;;;;22.92;53.85;101263.97;4940240;28;20477;-95
2022/08/23 07:09:34;;;;;;;15.25;10.30;;;;;;;23.17;57.43;101282.31;4940434;28;20063;-94
2022/08/23 07:12:00;;;;;;;16.38;11.27;;;;;;;23.23;51.75;101272.72;4944477;29;20119;-94
2022/08/23 07:14:26;;;;;;;22.52;10.93;;;;;;;23.22;53.66;101255.56;4958665;28;20097;-94
2022/08/23 07:16:55;;;;;;;17.05;10.30;;;;;;;23.54;52.06;101276.84;4955253;28;20038;-95
2022/08/23 07:19:26;;;;;;;15.90;10.52;;;;;;;23.92;52.45;101296.66;4940161;29;20023;-94
2022/08/23 07:21:52;;;;;;;16.45;10.98;;;;;;;24.22;52.43;101308.19;4941782;29;20126;-95
2022/08/23 07:24:35;;;;;;;17.17;10.55;;;;;;;23.98;50.79;101276.16;4939659;28;20019;-95
2022/08/23 07:27:05;;;;;;;16.15;10.82;;;;;;;24.13;50.29;101296.38;4962308;28;20031;-92
2022/08/23 07:29:36;;;;;;;17.88;10.15;;;;;;;24.52;51.04;101325.97;4970980;28;20059;-95
2022/08/23 07:32:03;;;;;;;16.95;10.57;;;;;;;24.76;49.56;101298.97;4966436;28;20075;-93
2022/08/23 07:34:29;;;;;;;13.07;10.02;;;;;;;25.09;48.23;101297.34;4978105;28;20177;-95
2022/08/23 07:36:54;;;;;;;12.57;9.80;;;;;;;25.45;46.97;101312.66;4957901;28;20136;-92
2022/08/23 07:39:22;;;;;;;18.00;11.65;;;;;;;25.85;46.96;101314.72;4952878;28;20103;-91
2022/08/23 07:41:48;;;;;;;19.55;12.73;;;;;;;26.28;46.92;101327.22;4940109;29;20046;-92
2022/08/23 07:44:13;;;;;;;17.05;10.57;;;;;;;26.59;45.38;101329.34;4952133;28;20019;-92
2022/08/23 07:46:44;;;;;;;14.77;10.13;;;;;;;26.77;45.48;101319.06;4953338;28;20033;-93
2022/08/23 07:49:11;;;;;;;16.25;10.13;;;;;;;27.07;43.45;101316.63;4957487;28;20046;-95
2022/08/23 07:51:39;;;;;;;15.50;11.15;;;;;;;27.24;43.53;101314.75;4945822;29;20182;-92
2022/08/23 07:54:07;;;;;;;14.82;11.35;;;;;;;27.61;46.93;101344.16;4960267;28;20034;-96
2022/08/23 07:56:34;;;;;;;20.70;11.65;;;;;;;28.00;44.68;101335.94;4958648;28;20031;-91
2022/08/23 07:59:00;;;;;;;13.85;9.90;;;;;;;28.56;44.07;101343.13;4968596;28;20046;-94
2022/08/23 08:01:27;;;;;;;14.15;10.27;;;;;;;29.15;42.78;101340.53;4966874;28;20042;-91
2022/08/23 08:03:56;;;;;;;19.98;10.77;;;;;;;29.59;41.32;101347.94;4955958;28;20109;-96
2022/08/23 08:06:26;;;;;;;16.30;10.63;;;;;;;30.01;38.28;101347.19;4954739;28;20023;-91
2022/08/23 08:09:13;;;;;;;12.98;9.80;;;;;;;30.27;39.75;101336.56;4971847;28;20036;-93
2022/08/23 08:11:41;;;;;;;16.52;10.07;;;;;;;30.03;36.67;101334.13;4939587;29;20036;-93
2022/08/23 08:14:09;;;;;;;12.93;9.52;;;;;;;29.88;39.18;101338.81;4962842;28;20034;-93
2022/08/23 08:16:39;;;;;;;17.23;9.88;;;;;;;29.98;38.09;101342.13;4960015;28;20039;-93
2022/08/23 08:19:08;;;;;;;12.60;9.52;;;;;;;29.92;37.88;101342.88;4958051;28;20121;-93
2022/08/23 08:21:34;;;;;;;14.55;8.70;;;;;;;29.79;38.98;101349.03;4954408;28;20035;-95
2022/08/23 08:24:00;;;;;;;14.00;9.07;;;;;;;29.57;39.01;101339.06;4954171;28;20039;-92
2022/08/23 08:26:26;;;;;;;13.45;9.07;;;;;;;29.51;39.51;101332.41;4953283;28;20022;-95
2022/08/23 08:28:55;;;;;;;15.00;10.63;;;;;;;29.64;38.99;101340.84;4952311;28;20091;-94
2022/08/23 08:31:21;;;;;;;14.32;8.52;;;;;;;30.33;39.64;101356.03;4938842;28;20495;-94
2022/08/23 08:33:46;;;;;;;13.68;9.00;;;;;;;31.03;37.89;101360.72;4953008;28;20074;-94
2022/08/23 08:36:34;;;;;;;13.30;8.60;;;;;;;32.00;37.15;101365.31;4935223;28;20028;-93
2022/08/23 08:39:00;;;;;;;11.70;8.60;;;;;;;32.78;33.57;101353.81;4968893;28;20027;-91
2022/08/23 08:42:05;;;;;;;13.35;8.70;;;;;;;33.26;34.89;101356.34;4947349;29;20074;-96
2022/08/23 08:44:58;;;;;;;11.25;8.32;;;;;;;33.78;35.08;101365.53;4938778;28;20043;-95
2022/08/23 08:47:34;;;;;;;12.05;7.82;;;;;;;34.27;32.26;101364.03;4936310;28;20082;-96
2022/08/23 08:50:05;;;;;;;14.65;7.70;;;;;;;35.00;30.68;101360.78;4936564;28;20133;-95
2022/08/23 08:52:38;;;;;;;13.93;7.65;;;;;;;35.35;28.77;101369.34;4952593;28;20207;-94
2022/08/23 08:55:09;;;;;;;11.38;7.03;;;;;;;35.71;28.02;101367.72;4937913;28;20023;-95
2022/08/23 08:57:48;;;;;;;10.60;7.32;;;;;;;36.04;29.26;101367.31;4960441;28;20038;-96
2022/08/23 09:00:32;;;;;;;10.80;6.05;;;;;;;36.32;29.25;101353.66;5009363;23;20063;-96
2022/08/23 09:02:59;;;;;;;9.57;5.72;;;;;;;36.61;26.14;101362.19;4964131;28;20046;-96
2022/08/23 09:05:38;;;;;;;10.00;5.10;;;;;;;36.88;28.39;101355.13;4961560;28;20110;-96
2022/08/23 09:08:33;;;;;;;10.52;6.00;;;;;;;37.35;28.05;101382.88;5104242;23;20054;-96
2022/08/23 09:11:07;;;;;;;13.25;5.03;;;;;;;37.46;26.77;101372.03;4986401;28;20031;-96
2022/08/23 09:24:12;;;;;;;;;;;;;;;38.74;26.40;101387.38;5021249;23;20053;-95
2022/08/23 09:38:19;;;;;;;6.55;3.95;;;;;;;39.67;24.30;101392.47;2378572;23;21700;31
2022/08/23 09:40:48;;;;;;;6.85;3.05;;;;;;;39.83;22.10;101383.19;4929814;28;20087;-92
2022/08/23 09:43:25;;;;;;;5.53;2.60;;;;;;;39.91;23.72;101381.91;4927369;29;20048;-91
2022/08/23 09:45:51;;;;;;;6.63;2.60;;;;;;;40.12;22.39;101395.00;4926772;29;20412;-92
2022/08/23 09:48:38;;;;;;;6.77;1.90;;;;;;;40.60;22.44;101398.03;4930634;29;20023;-93
2022/08/23 09:51:10;;;;;;;9.60;3.50;;;;;;;40.67;20.56;101393.06;4932311;29;20294;-91
2022/08/23 09:53:35;;;;;;;;;;;;;;;41.52;21.87;101391.19;4930726;29;20079;-92
2022/08/23 09:56:12;;;;;;;6.00;3.15;;;;;;;40.36;21.63;101391.91;4932346;29;20366;-92
2022/08/23 09:58:40;;;;;;;10.88;3.65;;;;;;;40.27;21.65;101388.75;4926681;29;20102;-93
2022/08/23 10:01:15;;;;;;;7.95;4.32;;;;;;;40.57;21.63;101383.50;4913703;29;20130;-91
2022/08/23 10:03:41;;;;;;;7.05;3.95;;;;;;;40.55;21.09;101377.34;4931369;29;20036;-90
2022/08/23 10:06:08;;;;;;;5.55;2.88;;;;;;;40.83;20.53;101380.91;4928116;29;20082;-93
2022/08/23 10:08:37;;;;;;;6.30;2.30;;;;;;;41.24;19.87;101378.44;4913415;29;20023;-93
2022/08/23 10:11:22;;;;;;;6.53;2.65;;;;;;;41.89;21.19;101365.94;4932703;28;20027;-92
2022/08/23 10:13:49;;;;;;;5.80;3.20;;;;;;;41.75;19.85;101370.31;4929727;29;20027;-92
2022/08/23 10:16:30;;;;;;;6.32;2.40;;;;;;;42.03;19.75;101380.25;4935220;29;20050;-94
2022/08/23 10:19:17;;;;;;;5.90;2.60;;;;;;;42.94;20.02;101376.72;4934750;29;20059;-94
2022/08/23 10:21:57;;;;;;;5.15;2.20;;;;;;;43.05;18.93;101371.97;4931687;29;20035;-92
2022/08/23 10:24:35;;;;;;;6.28;2.90;;;;;;;43.50;18.13;101373.81;4934411;29;20066;-96
2022/08/23 10:33:25;;;;;;;8.95;3.92;;;;;;;44.04;17.75;101379.78;5018904;23;20080;-94
2022/08/23 10:36:05;;;;;;;6.25;3.10;;;;;;;43.99;17.76;101381.47;4954611;29;20023;-95
2022/08/23 10:38:45;;;;;;;6.03;2.95;;;;;;;44.15;18.79;101372.97;4958044;29;20039;-90
2022/08/23 10:41:16;;;;;;;8.68;3.90;;;;;;;44.38;17.55;101371.41;4955085;29;20388;-96
2022/08/23 10:43:47;;;;;;;7.63;3.88;;;;;;;43.18;18.65;101368.56;4949371;28;20031;-95
2022/08/23 10:46:12;;;;;;;6.88;3.88;;;;;;;43.00;18.94;101360.75;4964007;28;20082;-96
2022/08/23 10:48:47;;;;;;;6.70;3.75;;;;;;;43.68;18.45;101357.47;4958037;28;20023;-96
2022/08/23 10:51:29;;;;;;;5.93;3.10;;;;;;;44.42;18.42;101358.47;4939899;29;20043;-96
2022/08/23 10:53:59;;;;;;;6.18;2.55;;;;;;;44.99;18.88;101351.25;4951464;29;20035;-96
2022/08/23 10:56:26;;;;;;;4.60;2.30;;;;;;;45.48;16.57;101361.41;4956280;29;20042;-96
2022/08/23 10:59:13;;;;;;;5.40;2.10;;;;;;;45.79;16.56;101361.00;4941574;29;20046;-95
2022/08/23 11:01:49;;;;;;;8.98;3.45;;;;;;;46.21;15.46;101357.34;4952504;28;20122;-95
2022/08/23 11:05:02;;;;;;;4.35;2.58;;;;;;;45.34;16.92;101355.63;4956469;29;20485;-92
2022/08/23 11:07:34;;;;;;;6.88;2.72;;;;;;;45.05;16.28;101352.06;4954429;28;20027;-93
2022/08/23 11:10:18;;;;;;;;;;;;;;;46.76;16.93;101357.56;4956495;28;20415;-94
2022/08/23 11:12:57;;;;;;;5.95;2.42;;;;;;;43.47;18.22;101357.56;4957025;28;20402;-96
2022/08/23 11:15:37;;;;;;;4.93;2.17;;;;;;;43.75;19.08;101352.41;4952177;28;20023;-95
2022/08/23 11:18:09;;;;;;;5.07;2.25;;;;;;;44.46;16.63;101353.97;4936513;28;20516;-94
2022/08/23 11:20:50;;;;;;;5.30;2.17;;;;;;;45.55;16.37;101352.59;4954002;28;20042;-92
2022/08/23 11:23:35;;;;;;;7.13;2.70;;;;;;;45.19;15.91;101353.00;4949241;28;20066;-95
2022/08/23 11:26:03;;;;;;;5.78;1.90;;;;;;;42.34;17.67;101358.78;4961468;29;20027;-96
2022/08/23 11:28:28;;;;;;;4.75;1.90;;;;;;;41.60;18.64;101361.88;4946055;29;20038;-96
2022/08/23 11:31:21;;;;;;;4.03;1.70;;;;;;;42.57;17.27;101353.78;4964988;28;20027;-93
2022/08/23 11:33:48;;;;;;;2.30;1.50;;;;;;;41.34;18.16;101356.13;5304774;23;20366;-96
2022/08/23 11:36:25;;;;;;;6.25;2.10;;;;;;;41.63;19.02;101356.59;5018041;23;20043;-96
2022/08/23 11:38:50;;;;;;;4.35;1.90;;;;;;;43.12;17.48;101352.06;4958389;28;20050;-96
2022/08/23 11:41:18;;;;;;;7.97;2.00;;;;;;;44.03;16.23;101364.06;4958147;28;20357;-96
2022/08/23 11:43:46;;;;;;;2.88;1.75;;;;;;;42.01;18.19;101352.56;4944464;29;20658;-95
2022/08/23 11:46:24;;;;;;;4.93;2.03;;;;;;;40.47;20.08;101354.66;4948743;29;20028;-95
2022/08/23 11:49:28;;;;;;;2.58;1.50;;;;;;;42.92;18.01;101344.50;4943169;29;20039;-96
2022/08/23 11:51:59;;;;;;;4.65;1.60;;;;;;;44.26;17.08;101352.16;4956388;29;20042;-96
2022/08/23 11:54:24;;;;;;;3.78;1.83;;;;;;;44.34;16.02;101345.91;4959343;29;20480;-96
2022/08/23 11:57:06;;;;;;;5.20;2.17;;;;;;;44.43;16.26;101338.53;4953310;28;20043;-96
2022/08/23 12:00:00;;;;;;;4.22;1.80;;;;;;;44.80;16.88;101331.50;4964606;28;20067;-95
2022/08/23 12:02:40;;;;;;;4.97;1.92;;;;;;;45.73;16.03;101337.72;4970566;28;20046;-96
2022/08/23 12:05:21;;;;;;;5.95;1.77;;;;;;;46.34;15.13;101345.31;4961489;28;20085;-96
2022/08/23 12:08:16;;;;;;;3.17;1.80;;;;;;;47.05;15.13;101350.84;4976496;28;20023;-96
2022/08/23 12:10:44;;;;;;;4.05;2.10;;;;;;;46.54;14.13;101354.56;4964685;28;20007;-96
2022/08/23 12:13:18;;;;;;;4.68;1.90;;;;;;;46.37;15.70;101355.97;4974147;28;20022;-95